Time;durP1;ratioP1;P1;durP2;ratioP2;P2;SDS_P1;SDS_P2;PMS_P1;PMS_P2;Temp;Humidity;BMP_temperature;BMP_pressure;BME280_temperature;BME280_humidity;BME280_pressure;Samples;Min_cycle;Max_cycle;Signal;HPM_P1;HPM_P2
2022/03/03 00:01:39;;;;;;;11.07;7.13;;;3.80;93.50;;;;;;5012886;28;20451;-68
2022/03/03 00:04:05;;;;;;;12.00;8.37;;;3.80;93.50;;;;;;5014325;28;20239;-68
2022/03/03 00:06:31;;;;;;;11.63;7.70;;;3.80;93.60;;;;;;4997971;28;20455;-72
2022/03/03 00:08:57;;;;;;;7.33;5.53;;;3.80;93.60;;;;;;5014269;28;20462;-69
2022/03/03 00:11:23;;;;;;;16.43;8.13;;;3.80;93.70;;;;;;5031863;28;20463;-69
2022/03/03 00:13:49;;;;;;;11.30;7.47;;;3.80;93.50;;;;;;5031326;28;20311;-69
2022/03/03 00:16:15;;;;;;;10.70;7.03;;;3.70;93.50;;;;;;5032000;28;20610;-68
2022/03/03 00:18:41;;;;;;;10.10;6.40;;;3.70;93.50;;;;;;5030183;28;20709;-69
2022/03/03 00:21:06;;;;;;;12.97;7.77;;;3.70;93.80;;;;;;5013795;28;20500;-68
2022/03/03 00:23:32;;;;;;;12.23;7.63;;;3.70;93.90;;;;;;5013939;28;20212;-68
2022/03/03 00:25:59;;;;;;;14.83;7.37;;;3.60;93.90;;;;;;5017323;28;20232;-68
2022/03/03 00:28:25;;;;;;;15.80;7.90;;;3.60;93.80;;;;;;5014727;28;20248;-69
2022/03/03 00:30:51;;;;;;;10.50;6.77;;;3.60;93.90;;;;;;5030117;28;20840;-68
2022/03/03 00:33:16;;;;;;;13.40;7.30;;;3.60;93.70;;;;;;5013119;28;20467;-69
2022/03/03 00:35:42;;;;;;;12.03;6.90;;;3.60;94.00;;;;;;5031752;28;20462;-69
2022/03/03 00:38:09;;;;;;;13.70;7.37;;;3.60;93.70;;;;;;5012187;28;20244;-69
2022/03/03 00:40:35;;;;;;;11.83;7.23;;;3.60;93.70;;;;;;5028891;28;20225;-69
2022/03/03 00:43:01;;;;;;;13.53;7.40;;;3.50;93.80;;;;;;5013504;28;20462;-72
2022/03/03 00:45:27;;;;;;;10.23;7.10;;;3.50;93.80;;;;;;5009578;28;20495;-68
2022/03/03 00:47:53;;;;;;;13.83;8.43;;;3.50;94.10;;;;;;5023761;28;20286;-69
2022/03/03 00:50:18;;;;;;;13.63;7.90;;;3.40;94.10;;;;;;5015139;28;20266;-68
2022/03/03 00:52:44;;;;;;;16.40;8.60;;;3.40;94.10;;;;;;5033020;28;20275;-70
2022/03/03 00:55:10;;;;;;;12.43;7.27;;;3.40;94.20;;;;;;5028414;28;20295;-68
2022/03/03 00:57:36;;;;;;;11.70;6.90;;;3.40;94.20;;;;;;5019712;28;20709;-70
2022/03/03 01:00:04;;;;;;;11.17;7.47;;;3.40;94.20;;;;;;5011167;28;20316;-69
2022/03/03 01:02:29;;;;;;;12.17;7.53;;;3.40;94.10;;;;;;5001520;28;20312;-69
2022/03/03 01:04:55;;;;;;;14.33;8.43;;;3.40;94.20;;;;;;5014581;28;20535;-71
2022/03/03 01:07:21;;;;;;;12.87;7.10;;;3.30;94.00;;;;;;4987427;28;20229;-68
2022/03/03 01:09:46;;;;;;;12.57;7.67;;;3.30;94.20;;;;;;4997832;28;20244;-68
2022/03/03 01:12:12;;;;;;;14.33;8.10;;;3.30;94.30;;;;;;4972850;28;20225;-69
2022/03/03 01:14:38;;;;;;;12.00;7.30;;;3.30;94.30;;;;;;5003094;28;20240;-69
2022/03/03 01:17:04;;;;;;;13.47;8.00;;;3.30;94.20;;;;;;5013263;28;20221;-69
2022/03/03 01:19:30;;;;;;;15.43;8.97;;;3.30;94.00;;;;;;5029184;28;20463;-69
2022/03/03 01:21:56;;;;;;;15.37;7.40;;;3.30;94.00;;;;;;5012633;28;20304;-68
2022/03/03 01:24:22;;;;;;;15.47;7.47;;;3.20;94.10;;;;;;5026468;28;20256;-70
2022/03/03 01:26:48;;;;;;;11.97;7.83;;;3.00;94.30;;;;;;5003650;28;20461;-69
2022/03/03 01:29:13;;;;;;;14.37;7.90;;;3.10;94.50;;;;;;5011904;28;20608;-70
2022/03/03 01:31:39;;;;;;;14.07;7.83;;;3.10;94.40;;;;;;5025282;28;20314;-69
2022/03/03 01:34:06;;;;;;;12.03;7.50;;;3.20;94.40;;;;;;5027894;28;20307;-70
2022/03/03 01:36:32;;;;;;;13.10;7.20;;;3.10;94.30;;;;;;5010045;28;20212;-69
2022/03/03 01:38:58;;;;;;;12.33;7.33;;;3.10;94.40;;;;;;5012149;28;20547;-68
2022/03/03 01:41:24;;;;;;;13.33;7.80;;;3.10;94.40;;;;;;5012206;28;20565;-69
2022/03/03 01:43:50;;;;;;;12.77;8.10;;;3.10;94.40;;;;;;5039842;28;20224;-68
2022/03/03 01:46:16;;;;;;;12.70;7.50;;;3.10;94.50;;;;;;4996039;28;20221;-70
2022/03/03 01:48:43;;;;;;;16.23;9.10;;;3.10;94.50;;;;;;5025827;28;20304;-68
2022/03/03 01:51:09;;;;;;;19.27;8.00;;;3.10;94.50;;;;;;5025975;28;20475;-70
2022/03/03 01:53:35;;;;;;;17.37;9.07;;;3.10;94.50;;;;;;5017634;28;20478;-69
2022/03/03 01:56:01;;;;;;;13.47;7.73;;;3.10;94.60;;;;;;5018931;28;20529;-68
2022/03/03 01:58:27;;;;;;;17.90;9.13;;;3.10;94.60;;;;;;5010710;28;20244;-69
2022/03/03 02:00:52;;;;;;;13.10;8.23;;;3.00;94.40;;;;;;5012999;28;20978;-70
2022/03/03 02:03:19;;;;;;;14.70;7.97;;;3.00;94.50;;;;;;5035277;28;20217;-68
2022/03/03 02:05:44;;;;;;;11.37;7.40;;;3.00;94.60;;;;;;5028289;28;20221;-68
2022/03/03 02:08:10;;;;;;;11.37;7.30;;;3.00;94.70;;;;;;5013596;28;20453;-70
2022/03/03 02:10:36;;;;;;;12.93;6.67;;;3.00;94.70;;;;;;5015138;28;20247;-70
2022/03/03 02:13:01;;;;;;;17.80;8.40;;;3.00;94.70;;;;;;5028344;28;20216;-69
2022/03/03 02:15:27;;;;;;;15.00;8.57;;;3.00;94.50;;;;;;5028779;28;20227;-69
2022/03/03 02:17:53;;;;;;;17.07;8.60;;;3.00;94.60;;;;;;5011988;28;20724;-69
2022/03/03 02:20:27;;;;;;;17.33;9.00;;;3.00;94.60;;;;;;5010169;28;20219;-69
2022/03/03 02:22:54;;;;;;;13.80;7.10;;;3.00;94.70;;;;;;5026351;28;20235;-68
2022/03/03 02:25:21;;;;;;;14.00;7.30;;;3.00;94.60;;;;;;5031173;28;20525;-68
2022/03/03 02:27:47;;;;;;;13.03;7.97;;;2.90;94.50;;;;;;5025439;28;20810;-70
2022/03/03 02:30:16;;;;;;;12.90;7.67;;;2.90;94.30;;;;;;5032422;28;20541;-69
2022/03/03 02:32:42;;;;;;;12.67;6.80;;;2.90;94.20;;;;;;5008546;28;20455;-69
2022/03/03 02:35:08;;;;;;;14.50;7.70;;;2.90;94.50;;;;;;5035775;28;20483;-71
2022/03/03 02:37:36;;;;;;;13.77;7.97;;;2.90;94.50;;;;;;5037809;28;20600;-69
2022/03/03 02:40:07;;;;;;;16.30;7.57;;;2.90;94.70;;;;;;5015952;28;20467;-70
2022/03/03 02:42:32;;;;;;;10.00;6.63;;;2.90;94.80;;;;;;5029070;28;20474;-67
2022/03/03 02:44:58;;;;;;;16.80;8.27;;;2.90;94.80;;;;;;4995346;28;20464;-70
2022/03/03 02:47:24;;;;;;;12.40;6.87;;;2.90;94.80;;;;;;5017133;28;20300;-69
2022/03/03 02:49:49;;;;;;;14.43;7.93;;;2.80;94.80;;;;;;5010832;28;20224;-69
2022/03/03 02:52:15;;;;;;;10.97;6.83;;;2.80;94.90;;;;;;5045379;28;20234;-69
2022/03/03 02:54:41;;;;;;;16.33;7.77;;;2.80;95.00;;;;;;5010553;28;20647;-69
2022/03/03 02:59:51;;;;;;;18.73;8.40;;;2.70;95.00;;;;;;5036193;28;20240;-68
2022/03/03 03:02:17;;;;;;;15.23;7.23;;;2.70;95.00;;;;;;4997718;28;20471;-68
2022/03/03 03:04:43;;;;;;;12.57;7.57;;;2.70;95.00;;;;;;5039173;28;20446;-68
2022/03/03 03:07:09;;;;;;;11.43;7.47;;;2.70;95.00;;;;;;5004456;28;20308;-68
2022/03/03 03:09:35;;;;;;;12.03;7.43;;;2.70;95.00;;;;;;5010675;28;20216;-69
2022/03/03 03:12:01;;;;;;;14.97;8.20;;;2.70;95.10;;;;;;5011386;28;20494;-69
2022/03/03 03:14:26;;;;;;;12.70;7.87;;;2.70;95.10;;;;;;5030486;28;20217;-69
2022/03/03 03:16:52;;;;;;;12.80;7.97;;;2.70;95.10;;;;;;5033123;28;20558;-69
2022/03/03 03:19:18;;;;;;;16.00;8.73;;;2.70;95.10;;;;;;5023826;28;20220;-66
2022/03/03 03:21:44;;;;;;;12.87;7.73;;;2.70;95.10;;;;;;5014470;28;20466;-68
2022/03/03 03:24:09;;;;;;;12.40;7.63;;;2.70;95.10;;;;;;5022993;28;20219;-69
2022/03/03 03:26:35;;;;;;;13.20;8.53;;;2.70;95.10;;;;;;5039349;28;20294;-69
2022/03/03 03:29:01;;;;;;;14.30;8.40;;;2.70;95.10;;;;;;5038464;28;20242;-69
2022/03/03 03:31:27;;;;;;;11.17;6.93;;;2.60;94.90;;;;;;5024405;28;20229;-69
2022/03/03 03:33:53;;;;;;;16.67;8.07;;;2.60;95.20;;;;;;5014550;28;20674;-68
2022/03/03 03:36:19;;;;;;;10.13;7.60;;;2.50;95.10;;;;;;4998579;28;20228;-69
2022/03/03 03:38:45;;;;;;;12.93;7.80;;;2.40;95.20;;;;;;5032637;28;20473;-69
2022/03/03 03:41:12;;;;;;;15.43;8.37;;;2.50;95.30;;;;;;5036957;28;20460;-68
2022/03/03 03:43:38;;;;;;;15.40;8.47;;;2.50;95.20;;;;;;5015987;28;20282;-67
2022/03/03 03:46:04;;;;;;;11.57;8.00;;;2.50;95.20;;;;;;5012685;28;20535;-69
2022/03/03 03:48:30;;;;;;;18.40;8.27;;;2.50;95.20;;;;;;5012269;28;20225;-70
2022/03/03 03:50:55;;;;;;;12.03;7.77;;;2.50;95.20;;;;;;5010722;28;20603;-69
2022/03/03 03:53:21;;;;;;;12.40;7.43;;;2.50;95.20;;;;;;5011776;28;20217;-69
2022/03/03 03:55:47;;;;;;;13.33;7.47;;;2.50;95.20;;;;;;4996740;28;20231;-68
2022/03/03 03:58:13;;;;;;;23.03;9.43;;;2.50;95.20;;;;;;5040098;28;20236;-68
2022/03/03 04:00:39;;;;;;;19.57;9.43;;;2.50;95.30;;;;;;5022818;28;21021;-69
2022/03/03 04:03:05;;;;;;;16.40;8.27;;;2.40;95.30;;;;;;5027440;28;20577;-68
2022/03/03 04:05:30;;;;;;;18.07;8.33;;;2.40;95.30;;;;;;5017104;28;20459;-68
2022/03/03 04:07:56;;;;;;;13.97;8.33;;;2.40;95.30;;;;;;5028986;28;20692;-69
2022/03/03 04:10:22;;;;;;;15.57;8.70;;;2.40;95.20;;;;;;4996243;28;20250;-68
2022/03/03 04:12:48;;;;;;;16.63;8.27;;;2.40;95.10;;;;;;5012357;28;20651;-71
2022/03/03 04:15:13;;;;;;;12.57;7.17;;;2.30;95.00;;;;;;4995841;28;20271;-68
2022/03/03 04:17:39;;;;;;;12.87;7.50;;;2.40;95.20;;;;;;4994229;28;20236;-71
2022/03/03 04:20:06;;;;;;;12.17;8.30;;;2.30;95.20;;;;;;5037778;28;20224;-68
2022/03/03 04:22:33;;;;;;;16.03;8.67;;;2.30;95.00;;;;;;5011796;28;20447;-72
2022/03/03 04:24:58;;;;;;;12.47;7.90;;;2.20;95.20;;;;;;5010381;28;20459;-68
2022/03/03 04:27:24;;;;;;;14.20;8.70;;;2.20;95.30;;;;;;5013448;28;20454;-72
2022/03/03 04:29:50;;;;;;;13.00;7.80;;;2.30;95.30;;;;;;5036362;28;20234;-69
2022/03/03 04:32:15;;;;;;;13.93;7.73;;;2.30;95.30;;;;;;5017234;28;20223;-69
2022/03/03 04:34:42;;;;;;;13.97;8.50;;;2.30;95.30;;;;;;5020669;28;20216;-69
2022/03/03 04:37:08;;;;;;;17.00;9.07;;;2.20;95.30;;;;;;5010835;28;20271;-69
2022/03/03 04:39:34;;;;;;;14.17;8.17;;;2.20;95.30;;;;;;5027526;28;20534;-68
2022/03/03 04:41:59;;;;;;;12.17;8.13;;;2.20;95.20;;;;;;5040132;28;20880;-69
2022/03/03 04:44:26;;;;;;;15.57;7.80;;;2.20;95.40;;;;;;5015597;28;20240;-70
2022/03/03 04:46:52;;;;;;;11.03;7.50;;;2.20;95.60;;;;;;5031456;28;20774;-68
2022/03/03 04:49:18;;;;;;;17.63;9.30;;;2.20;95.10;;;;;;5012992;28;20459;-69
2022/03/03 04:51:44;;;;;;;13.43;8.90;;;2.20;95.20;;;;;;5030280;28;20468;-69
2022/03/03 04:54:11;;;;;;;12.40;7.30;;;2.20;94.70;;;;;;5011722;28;20224;-69
2022/03/03 04:56:38;;;;;;;10.13;7.20;;;2.10;95.00;;;;;;5012533;28;20715;-69
2022/03/03 04:59:05;;;;;;;12.90;7.90;;;2.10;95.10;;;;;;5013274;28;20512;-69
2022/03/03 05:01:31;;;;;;;14.33;9.17;;;2.10;95.10;;;;;;5012249;28;20455;-68
2022/03/03 05:03:57;;;;;;;15.80;9.20;;;2.10;95.20;;;;;;5023712;28;21061;-69
2022/03/03 05:06:22;;;;;;;17.50;9.10;;;2.10;95.10;;;;;;5029764;28;20470;-68
2022/03/03 05:08:48;;;;;;;16.27;9.23;;;2.10;95.30;;;;;;5029113;28;20216;-70
2022/03/03 05:11:14;;;;;;;10.57;8.00;;;2.00;95.30;;;;;;5029267;28;20719;-68
2022/03/03 05:13:39;;;;;;;15.73;8.80;;;2.10;95.40;;;;;;5036880;28;20216;-68
2022/03/03 05:16:06;;;;;;;16.27;9.30;;;2.00;95.30;;;;;;5028804;28;20774;-69
2022/03/03 05:18:31;;;;;;;15.10;8.47;;;2.00;95.20;;;;;;5030922;28;20221;-69
2022/03/03 05:20:57;;;;;;;14.97;7.90;;;1.90;95.40;;;;;;5031434;28;20470;-70
2022/03/03 05:23:23;;;;;;;12.33;7.43;;;1.90;95.50;;;;;;5015004;28;20247;-69
2022/03/03 05:25:49;;;;;;;14.73;8.13;;;1.90;95.60;;;;;;5018338;28;20479;-68
2022/03/03 05:28:15;;;;;;;12.93;7.70;;;1.80;95.70;;;;;;5032369;28;20676;-70
2022/03/03 05:30:40;;;;;;;10.27;8.10;;;1.80;95.80;;;;;;5015982;28;20679;-69
2022/03/03 05:33:07;;;;;;;16.10;8.17;;;1.70;95.90;;;;;;5021339;28;20211;-68
2022/03/03 05:35:32;;;;;;;12.80;8.30;;;1.80;95.80;;;;;;5006834;28;20256;-70
2022/03/03 05:37:58;;;;;;;12.10;7.33;;;1.80;95.70;;;;;;5035634;28;20491;-69
2022/03/03 05:40:24;;;;;;;12.97;6.93;;;1.80;95.70;;;;;;5029822;28;20319;-70
2022/03/03 05:42:50;;;;;;;11.97;7.93;;;1.70;95.80;;;;;;5012711;28;20543;-70
2022/03/03 05:45:15;;;;;;;12.40;7.20;;;1.80;95.80;;;;;;5028425;28;20654;-68
2022/03/03 05:47:41;;;;;;;11.70;7.17;;;1.80;95.60;;;;;;5012687;28;20216;-69
2022/03/03 05:50:09;;;;;;;16.27;8.37;;;1.80;95.70;;;;;;5013021;28;20224;-69
2022/03/03 05:52:35;;;;;;;17.43;7.67;;;1.70;95.80;;;;;;5033200;28;21016;-69
2022/03/03 05:55:01;;;;;;;11.10;7.50;;;1.50;95.90;;;;;;5032922;28;20458;-69
2022/03/03 05:57:44;;;;;;;16.47;8.90;;;1.50;96.10;;;;;;5032174;28;20467;-70
2022/03/03 06:00:13;;;;;;;14.07;7.40;;;1.40;96.10;;;;;;5015036;28;20280;-72
2022/03/03 06:02:56;;;;;;;10.73;7.37;;;1.50;95.70;;;;;;5006256;28;20452;-68
2022/03/03 06:05:26;;;;;;;15.60;8.40;;;1.60;95.90;;;;;;4994802;28;20455;-69
2022/03/03 06:08:04;;;;;;;17.53;8.07;;;1.50;95.50;;;;;;5013169;28;20466;-69
2022/03/03 06:10:33;;;;;;;14.20;8.27;;;1.50;95.70;;;;;;5011831;28;20469;-69
2022/03/03 06:13:12;;;;;;;14.97;8.30;;;1.60;95.70;;;;;;5005101;28;20544;-68
2022/03/03 06:15:42;;;;;;;14.00;7.77;;;1.60;95.80;;;;;;5012594;28;20930;-69
2022/03/03 06:18:09;;;;;;;16.17;7.40;;;1.70;95.80;;;;;;5012617;28;20512;-69
2022/03/03 06:20:37;;;;;;;12.60;7.63;;;1.70;95.80;;;;;;4994730;28;20459;-68
2022/03/03 06:23:03;;;;;;;11.87;7.70;;;1.70;95.80;;;;;;5008915;28;20503;-68
2022/03/03 06:25:29;;;;;;;10.27;6.97;;;1.70;95.80;;;;;;5011333;28;20479;-68
2022/03/03 06:27:54;;;;;;;13.07;7.80;;;1.70;95.80;;;;;;5021136;28;20221;-67
2022/03/03 06:30:20;;;;;;;11.87;7.73;;;1.70;95.80;;;;;;4963884;28;20358;-70
2022/03/03 06:32:47;;;;;;;13.37;7.33;;;1.70;95.80;;;;;;5012191;28;20248;-68
2022/03/03 06:35:12;;;;;;;14.37;8.33;;;1.70;95.80;;;;;;5010007;28;20771;-68
2022/03/03 06:37:38;;;;;;;17.30;8.30;;;1.60;95.80;;;;;;5019173;28;20572;-71
2022/03/03 06:40:04;;;;;;;13.30;7.73;;;1.70;95.90;;;;;;5016059;28;20234;-67
2022/03/03 06:42:30;;;;;;;16.93;8.60;;;1.70;95.90;;;;;;5005100;28;20255;-69
2022/03/03 06:44:56;;;;;;;12.53;7.67;;;1.70;95.90;;;;;;5017898;28;20498;-68
2022/03/03 06:47:22;;;;;;;18.47;8.57;;;1.70;95.90;;;;;;5017036;28;20229;-68
2022/03/03 06:49:49;;;;;;;14.97;8.57;;;1.70;95.90;;;;;;5020254;28;20846;-67
2022/03/03 06:52:16;;;;;;;15.27;8.40;;;1.70;95.90;;;;;;5004169;28;20465;-68
2022/03/03 06:54:49;;;;;;;10.63;6.97;;;1.70;95.80;;;;;;5005786;28;20464;-67
2022/03/03 06:57:19;;;;;;;18.53;9.30;;;1.70;95.80;;;;;;4988211;28;20467;-68
2022/03/03 06:59:46;;;;;;;15.47;8.30;;;1.60;95.80;;;;;;5026353;28;20459;-68
2022/03/03 07:02:13;;;;;;;11.53;7.93;;;1.60;95.80;;;;;;5022889;28;20471;-69
2022/03/03 07:04:40;;;;;;;14.63;7.80;;;1.60;95.80;;;;;;5017389;28;20459;-67
2022/03/03 07:07:05;;;;;;;14.60;8.57;;;1.60;95.90;;;;;;5010145;28;20458;-68
2022/03/03 07:09:31;;;;;;;21.03;9.70;;;1.60;96.00;;;;;;4987051;28;20451;-67
2022/03/03 07:11:59;;;;;;;12.17;8.67;;;1.60;96.10;;;;;;5024024;28;20312;-69
2022/03/03 07:14:25;;;;;;;20.00;9.30;;;1.60;96.00;;;;;;5009552;28;20456;-67
2022/03/03 07:16:57;;;;;;;26.10;9.87;;;1.60;96.10;;;;;;5018406;28;20461;-67
2022/03/03 07:19:43;;;;;;;19.03;10.27;;;1.60;96.10;;;;;;5025455;28;20841;-67
2022/03/03 07:22:16;;;;;;;13.93;8.77;;;1.60;96.20;;;;;;5000714;28;20460;-70
2022/03/03 07:24:49;;;;;;;20.00;9.67;;;1.70;96.30;;;;;;5015761;28;20463;-66
2022/03/03 07:27:23;;;;;;;17.03;10.70;;;1.70;96.40;;;;;;5008152;28;20452;-68
2022/03/03 07:30:00;;;;;;;19.60;9.47;;;1.70;96.50;;;;;;5018541;28;20459;-67
2022/03/03 07:32:33;;;;;;;19.10;11.00;;;1.70;96.50;;;;;;5025743;28;20470;-69
2022/03/03 07:35:12;;;;;;;17.43;10.83;;;1.70;96.60;;;;;;5007405;28;20451;-69
2022/03/03 07:37:57;;;;;;;21.33;10.93;;;1.70;96.70;;;;;;5008078;28;20605;-67
2022/03/03 07:40:27;;;;;;;20.17;11.67;;;1.70;96.70;;;;;;5026199;28;20460;-67
2022/03/03 07:42:55;;;;;;;21.97;12.00;;;1.80;96.80;;;;;;4986412;28;20467;-68
2022/03/03 07:45:21;;;;;;;17.33;11.30;;;1.80;96.80;;;;;;5008311;28;20533;-66
2022/03/03 07:47:51;;;;;;;21.33;9.80;;;1.80;97.10;;;;;;5006580;28;20460;-68
2022/03/03 07:50:17;;;;;;;21.80;9.57;;;1.80;97.00;;;;;;5005256;28;20561;-67
2022/03/03 07:52:48;;;;;;;19.57;9.63;;;1.80;97.20;;;;;;5017854;28;20542;-68
2022/03/03 07:55:13;;;;;;;15.40;9.20;;;1.80;97.20;;;;;;5001352;28;20452;-69
2022/03/03 07:57:42;;;;;;;17.97;9.37;;;1.80;97.30;;;;;;5030620;28;20462;-68
2022/03/03 08:00:13;;;;;;;18.43;9.67;;;1.80;97.30;;;;;;5022952;28;20753;-67
2022/03/03 08:02:44;;;;;;;14.30;8.70;;;1.80;97.50;;;;;;5025085;28;20543;-68
2022/03/03 08:05:10;;;;;;;16.00;8.37;;;1.90;97.60;;;;;;5023971;28;20460;-67
2022/03/03 08:07:41;;;;;;;17.53;9.13;;;1.90;97.70;;;;;;5026885;28;20454;-69
2022/03/03 08:10:08;;;;;;;17.37;9.67;;;1.90;97.80;;;;;;5026508;28;20744;-67
2022/03/03 08:12:35;;;;;;;16.00;9.40;;;2.00;98.00;;;;;;4993445;28;20471;-70
2022/03/03 08:15:01;;;;;;;20.80;10.23;;;2.00;97.90;;;;;;5015943;28;20459;-69
2022/03/03 08:17:26;;;;;;;16.83;9.37;;;2.10;98.10;;;;;;5006224;28;20479;-69
2022/03/03 08:19:55;;;;;;;17.70;9.27;;;2.10;98.40;;;;;;5007896;28;20236;-71
2022/03/03 08:22:24;;;;;;;19.33;9.73;;;2.10;98.50;;;;;;5024806;28;20251;-69
2022/03/03 08:24:57;;;;;;;19.20;8.50;;;2.20;98.60;;;;;;5021233;28;20490;-70
2022/03/03 08:27:25;;;;;;;12.43;8.00;;;2.30;98.90;;;;;;5006332;28;20476;-71
2022/03/03 08:29:51;;;;;;;18.73;9.37;;;2.30;98.80;;;;;;5023644;28;20451;-71
2022/03/03 08:32:19;;;;;;;13.57;8.87;;;2.40;99.10;;;;;;5010539;28;20463;-70
2022/03/03 08:35:07;;;;;;;15.17;8.43;;;2.50;99.80;;;;;;5026456;28;20463;-69
2022/03/03 08:37:39;;;;;;;18.20;9.27;;;2.60;99.30;;;;;;5024701;28;21053;-69
2022/03/03 08:40:08;;;;;;;11.67;8.00;;;2.70;99.90;;;;;;5000833;28;21142;-71
2022/03/03 08:42:56;;;;;;;15.67;8.57;;;2.80;99.90;;;;;;5007573;28;20549;-68
2022/03/03 08:45:23;;;;;;;11.70;8.77;;;2.90;99.90;;;;;;5020975;28;21114;-69
2022/03/03 08:48:00;;;;;;;15.77;9.50;;;3.00;99.90;;;;;;5020106;28;20455;-70
2022/03/03 08:50:27;;;;;;;19.00;9.40;;;3.00;99.90;;;;;;5027270;28;20466;-70
2022/03/03 08:52:58;;;;;;;34.33;15.80;;;3.20;99.90;;;;;;5007320;28;20556;-69
2022/03/03 08:55:25;;;;;;;54.87;23.57;;;3.30;99.90;;;;;;5019597;28;20598;-72
2022/03/03 08:57:51;;;;;;;65.43;28.70;;;3.40;99.90;;;;;;4993081;28;20530;-70
2022/03/03 09:00:17;;;;;;;73.77;28.87;;;3.50;99.90;;;;;;5017545;28;20477;-70
2022/03/03 09:02:43;;;;;;;72.13;28.47;;;3.50;99.90;;;;;;5033488;28;20459;-70
2022/03/03 09:05:10;;;;;;;61.40;26.50;;;3.60;99.90;;;;;;5010641;28;20514;-68
2022/03/03 09:07:37;;;;;;;45.63;21.80;;;3.60;99.90;;;;;;5021296;28;20243;-67
2022/03/03 09:10:03;;;;;;;36.83;17.63;;;3.70;99.90;;;;;;5029201;28;20465;-67
2022/03/03 09:12:29;;;;;;;26.33;15.67;;;3.80;99.90;;;;;;5011308;28;20490;-69
2022/03/03 09:14:55;;;;;;;23.87;12.43;;;3.90;99.90;;;;;;5031894;28;20478;-67
2022/03/03 09:17:21;;;;;;;18.73;10.80;;;4.00;99.90;;;;;;5011927;28;20288;-67
2022/03/03 09:19:47;;;;;;;21.27;10.80;;;4.10;99.90;;;;;;5025039;28;20232;-69
2022/03/03 09:22:13;;;;;;;17.87;9.77;;;4.20;99.90;;;;;;5005931;28;20232;-69
2022/03/03 09:24:39;;;;;;;25.70;8.90;;;4.30;99.90;;;;;;5027104;28;20451;-67
2022/03/03 09:27:05;;;;;;;16.20;10.30;;;4.40;99.90;;;;;;5023684;28;20458;-70
2022/03/03 09:29:33;;;;;;;15.57;9.47;;;4.40;99.90;;;;;;5029147;28;20228;-71
2022/03/03 09:32:06;;;;;;;16.93;9.07;;;4.50;99.90;;;;;;5029588;28;20224;-68
2022/03/03 09:34:32;;;;;;;13.23;9.10;;;4.50;99.90;;;;;;5009817;28;20468;-66
2022/03/03 09:36:58;;;;;;;14.30;8.80;;;4.60;99.90;;;;;;5019256;28;21018;-67
2022/03/03 09:39:25;;;;;;;15.07;8.30;;;4.70;99.90;;;;;;5033192;28;20459;-69
2022/03/03 09:41:52;;;;;;;13.63;9.70;;;4.80;99.90;;;;;;5020078;28;20882;-67
2022/03/03 09:44:22;;;;;;;19.23;8.60;;;4.80;99.90;;;;;;5007488;28;20455;-70
2022/03/03 09:46:48;;;;;;;17.73;10.20;;;4.90;99.90;;;;;;5020463;28;20456;-68
2022/03/03 09:49:14;;;;;;;14.87;8.70;;;5.00;99.90;;;;;;5010494;28;20451;-69
2022/03/03 09:51:40;;;;;;;15.37;8.57;;;5.00;99.90;;;;;;5025306;28;20228;-69
2022/03/03 09:54:06;;;;;;;16.23;10.00;;;5.10;99.90;;;;;;5018666;28;20505;-70
2022/03/03 09:56:32;;;;;;;15.93;9.07;;;5.20;99.90;;;;;;5023098;28;20616;-70
2022/03/03 09:58:57;;;;;;;12.07;8.67;;;5.20;99.90;;;;;;5029510;28;20457;-70
2022/03/03 10:01:33;;;;;;;16.23;9.40;;;5.30;99.90;;;;;;5025265;28;20227;-68
2022/03/03 10:04:17;;;;;;;14.67;7.97;;;5.40;99.90;;;;;;5018252;28;20248;-69
2022/03/03 10:06:43;;;;;;;12.90;7.47;;;5.50;99.90;;;;;;5014254;28;20513;-69
2022/03/03 10:09:10;;;;;;;14.70;8.83;;;5.60;99.70;;;;;;5012900;28;20458;-69
2022/03/03 10:11:40;;;;;;;13.10;8.37;;;5.60;99.70;;;;;;5018477;28;20231;-69
2022/03/03 10:14:06;;;;;;;11.90;7.97;;;5.80;99.80;;;;;;5001213;28;20452;-69
2022/03/03 10:16:32;;;;;;;16.30;8.03;;;5.90;99.40;;;;;;4995918;28;21034;-71
2022/03/03 10:19:04;;;;;;;13.63;8.30;;;6.00;99.60;;;;;;5029754;28;20447;-69
2022/03/03 10:21:32;;;;;;;20.23;8.77;;;6.20;99.60;;;;;;5033107;28;20278;-69
2022/03/03 10:23:59;;;;;;;14.87;8.40;;;6.20;99.70;;;;;;5023697;28;21021;-68
2022/03/03 10:26:38;;;;;;;15.33;8.50;;;6.40;99.70;;;;;;5015768;28;20460;-71
2022/03/03 10:29:15;;;;;;;13.97;8.43;;;6.60;99.60;;;;;;5005434;28;20459;-70
2022/03/03 10:31:54;;;;;;;14.77;9.00;;;6.70;99.50;;;;;;5017539;28;20500;-71
2022/03/03 10:34:23;;;;;;;15.50;8.60;;;6.80;99.10;;;;;;5040853;28;20476;-70
2022/03/03 10:37:16;;;;;;;12.30;8.53;;;6.90;99.10;;;;;;5009215;28;20468;-70
2022/03/03 10:39:43;;;;;;;12.87;7.67;;;6.90;98.80;;;;;;5017553;28;20831;-69
2022/03/03 10:42:27;;;;;;;15.67;8.20;;;7.20;98.50;;;;;;4989050;28;20460;-69
2022/03/03 10:45:11;;;;;;;15.33;8.33;;;7.50;98.80;;;;;;5007546;28;20458;-70
2022/03/03 10:47:37;;;;;;;14.13;8.90;;;7.50;98.70;;;;;;5019315;28;20877;-72
2022/03/03 10:50:03;;;;;;;11.93;7.73;;;7.60;98.90;;;;;;5027828;28;20563;-71
2022/03/03 10:52:35;;;;;;;13.70;8.00;;;7.70;99.00;;;;;;5015948;28;20220;-70
2022/03/03 10:55:10;;;;;;;12.77;8.47;;;7.80;99.00;;;;;;5017023;28;20456;-71
2022/03/03 10:57:58;;;;;;;15.50;9.83;;;7.90;98.70;;;;;;5013837;28;20500;-71
2022/03/03 11:00:29;;;;;;;14.13;8.90;;;7.90;98.40;;;;;;5009017;28;20469;-70
2022/03/03 11:02:57;;;;;;;16.67;9.70;;;7.90;98.60;;;;;;5015965;28;20466;-70
2022/03/03 11:05:25;;;;;;;18.03;11.20;;;8.00;98.30;;;;;;5014996;28;20602;-71
2022/03/03 11:07:53;;;;;;;15.10;10.53;;;8.10;98.50;;;;;;5007874;28;21006;-71
2022/03/03 11:10:22;;;;;;;21.33;11.63;;;8.20;98.20;;;;;;5023549;28;20480;-71
2022/03/03 11:12:48;;;;;;;21.63;13.23;;;8.30;98.10;;;;;;5006661;28;20463;-69
2022/03/03 11:15:17;;;;;;;19.83;12.43;;;8.40;98.00;;;;;;5025242;28;20542;-70
2022/03/03 11:17:43;;;;;;;18.30;11.73;;;8.50;98.00;;;;;;5006079;28;20451;-71
2022/03/03 11:20:16;;;;;;;16.83;10.87;;;8.40;97.20;;;;;;5004019;28;20982;-72
2022/03/03 11:22:44;;;;;;;17.30;9.00;;;8.50;97.60;;;;;;5007803;28;20448;-69
2022/03/03 11:25:28;;;;;;;16.97;10.53;;;8.60;97.80;;;;;;5026224;28;20478;-69
2022/03/03 11:28:09;;;;;;;13.57;7.60;;;8.70;97.40;;;;;;5019935;28;20549;-70
2022/03/03 11:30:36;;;;;;;14.50;9.90;;;8.80;97.70;;;;;;5014193;28;20476;-68
2022/03/03 11:33:27;;;;;;;13.83;9.03;;;8.90;97.70;;;;;;5006013;28;21045;-69
2022/03/03 11:35:59;;;;;;;14.67;8.87;;;8.90;96.80;;;;;;5014736;28;20463;-69
2022/03/03 11:38:53;;;;;;;14.73;8.23;;;8.90;96.70;;;;;;5022040;28;21002;-69
2022/03/03 11:41:23;;;;;;;12.77;8.80;;;9.00;96.20;;;;;;5018489;28;20460;-69
2022/03/03 11:44:00;;;;;;;14.60;9.37;;;9.00;96.20;;;;;;5000159;28;20510;-70
2022/03/03 11:46:46;;;;;;;14.47;8.70;;;8.90;96.70;;;;;;5010088;28;20466;-70
2022/03/03 11:49:16;;;;;;;14.00;8.73;;;8.90;96.50;;;;;;5022988;28;20463;-70
2022/03/03 11:51:42;;;;;;;15.13;9.83;;;9.00;96.90;;;;;;5024553;28;20459;-69
2022/03/03 11:54:11;;;;;;;15.73;9.97;;;9.20;96.90;;;;;;5005123;28;20836;-70
2022/03/03 11:57:06;;;;;;;15.30;10.00;;;9.30;97.00;;;;;;5018878;28;20221;-70
2022/03/03 11:59:36;;;;;;;11.83;8.60;;;9.40;96.90;;;;;;5026254;28;20458;-70
2022/03/03 12:02:02;;;;;;;16.50;9.33;;;9.60;96.30;;;;;;5024298;28;20818;-71
2022/03/03 12:04:29;;;;;;;15.00;9.43;;;9.50;94.80;;;;;;5006042;28;20459;-70
2022/03/03 12:06:55;;;;;;;21.57;12.13;;;9.60;95.60;;;;;;5033533;28;20459;-70
2022/03/03 12:09:26;;;;;;;25.63;14.37;;;9.70;95.30;;;;;;5023986;28;20463;-70
2022/03/03 12:12:11;;;;;;;17.27;11.30;;;9.80;95.10;;;;;;5016739;28;20464;-71
2022/03/03 12:14:49;;;;;;;20.30;12.07;;;9.90;94.30;;;;;;5021726;28;20447;-71
2022/03/03 12:17:38;;;;;;;16.63;10.03;;;9.90;93.80;;;;;;5024891;28;20495;-71
2022/03/03 12:20:24;;;;;;;15.23;8.93;;;9.80;92.80;;;;;;5010872;28;20541;-70
2022/03/03 12:23:00;;;;;;;12.80;7.83;;;9.70;93.20;;;;;;4992962;28;20459;-70
2022/03/03 12:25:50;;;;;;;12.60;7.50;;;9.60;93.30;;;;;;5022666;28;20536;-73
2022/03/03 12:28:25;;;;;;;14.17;7.80;;;9.70;93.60;;;;;;5025393;28;20451;-70
2022/03/03 12:30:53;;;;;;;14.90;8.97;;;9.70;93.10;;;;;;4981307;28;20519;-72
2022/03/03 12:33:30;;;;;;;15.00;7.43;;;9.80;94.00;;;;;;5021831;28;20479;-72
2022/03/03 12:35:59;;;;;;;15.33;8.33;;;9.80;93.60;;;;;;5019153;28;20466;-72
2022/03/03 12:38:27;;;;;;;13.93;8.30;;;9.70;92.70;;;;;;5013564;28;20490;-71
2022/03/03 12:40:54;;;;;;;12.97;8.67;;;9.70;91.70;;;;;;5011559;28;20455;-71
2022/03/03 12:43:21;;;;;;;13.30;7.50;;;9.70;91.80;;;;;;5021464;28;20468;-70
2022/03/03 12:45:48;;;;;;;15.10;8.03;;;9.90;92.00;;;;;;5017309;28;20460;-70
2022/03/03 12:48:27;;;;;;;13.80;7.60;;;10.00;90.70;;;;;;5009645;28;20483;-72
2022/03/03 12:51:01;;;;;;;13.73;7.70;;;10.00;90.10;;;;;;4996334;28;20476;-72
2022/03/03 12:53:36;;;;;;;12.20;6.70;;;10.10;90.40;;;;;;5017439;28;20502;-72
2022/03/03 12:56:04;;;;;;;10.00;7.37;;;10.00;90.00;;;;;;5022154;28;20471;-72